Time;durP1;ratioP1;P1;durP2;ratioP2;P2;SDS_P1;SDS_P2;PMS_P1;PMS_P2;Temp;Humidity;BMP_temperature;BMP_pressure;BME280_temperature;BME280_humidity;BME280_pressure;Samples;Min_cycle;Max_cycle;Signal;HPM_P1;HPM_P2
2023/12/28 00:00:16;;;;;;;2.72;1.08;;;10.50;99.90;;;;;;5034397;28;20038;-81
2023/12/28 00:02:42;;;;;;;3.33;1.17;;;10.50;99.90;;;;;;5035475;28;20052;-82
2023/12/28 00:05:08;;;;;;;3.90;1.30;;;10.50;99.90;;;;;;5002074;28;20033;-81
2023/12/28 00:07:33;;;;;;;2.67;1.17;;;10.50;99.90;;;;;;5034870;28;20531;-82
2023/12/28 00:09:59;;;;;;;3.97;1.30;;;10.50;99.90;;;;;;5034303;28;20034;-82
2023/12/28 00:12:25;;;;;;;3.35;1.20;;;10.60;99.90;;;;;;5017254;28;20399;-82
2023/12/28 00:14:51;;;;;;;6.78;2.15;;;10.60;99.90;;;;;;5019563;28;20041;-84
2023/12/28 00:17:17;;;;;;;2.25;1.33;;;10.60;99.90;;;;;;5036899;28;20036;-83
2023/12/28 00:19:42;;;;;;;3.75;1.50;;;10.60;99.90;;;;;;5019866;28;20033;-85
2023/12/28 00:22:08;;;;;;;2.63;1.23;;;10.60;99.90;;;;;;5036335;28;20071;-83
2023/12/28 00:24:33;;;;;;;3.50;1.27;;;10.60;99.90;;;;;;5018161;28;20499;-84
2023/12/28 00:26:59;;;;;;;2.30;0.98;;;10.60;99.90;;;;;;5018315;28;20120;-83
2023/12/28 00:29:25;;;;;;;4.72;1.50;;;10.70;99.90;;;;;;5033946;28;20061;-82
2023/12/28 00:31:50;;;;;;;4.43;1.58;;;10.60;99.90;;;;;;5035810;28;20068;-83
2023/12/28 00:34:16;;;;;;;3.92;1.30;;;10.70;99.90;;;;;;5036389;28;20032;-84
2023/12/28 00:36:41;;;;;;;4.20;1.45;;;10.60;99.90;;;;;;5019310;28;20053;-81
2023/12/28 00:39:08;;;;;;;3.50;1.40;;;10.70;99.90;;;;;;5035046;28;20056;-83
2023/12/28 00:41:33;;;;;;;2.45;1.42;;;10.60;99.90;;;;;;5019933;28;20085;-83
2023/12/28 00:44:00;;;;;;;5.43;1.60;;;10.60;99.90;;;;;;5035810;28;20452;-84
2023/12/28 00:46:26;;;;;;;4.53;1.38;;;10.70;99.90;;;;;;5002207;28;20076;-85
2023/12/28 00:48:51;;;;;;;4.10;1.70;;;10.70;99.90;;;;;;5018704;28;20084;-85
2023/12/28 00:51:17;;;;;;;2.70;1.48;;;10.70;99.90;;;;;;5035100;28;20392;-84
2023/12/28 00:53:43;;;;;;;2.45;1.20;;;10.70;99.90;;;;;;5035469;28;20076;-81
2023/12/28 00:56:10;;;;;;;4.82;1.40;;;10.70;99.90;;;;;;5017412;28;20041;-82
2023/12/28 00:58:39;;;;;;;4.57;1.40;;;10.70;99.90;;;;;;5034644;28;20076;-82
2023/12/28 01:01:05;;;;;;;3.85;1.27;;;10.70;99.90;;;;;;5034806;28;20125;-83
2023/12/28 01:03:30;;;;;;;3.15;1.30;;;10.70;99.90;;;;;;5035255;28;20154;-83
2023/12/28 01:05:56;;;;;;;3.75;1.38;;;10.70;99.90;;;;;;5033489;28;20099;-81
2023/12/28 01:08:21;;;;;;;3.20;1.45;;;10.70;99.90;;;;;;5015829;28;20174;-80
2023/12/28 01:10:47;;;;;;;3.78;2.20;;;10.70;99.90;;;;;;5016886;28;20048;-82
2023/12/28 01:13:13;;;;;;;2.67;1.40;;;10.70;99.90;;;;;;5032981;28;20046;-81
2023/12/28 01:15:39;;;;;;;3.75;1.52;;;10.70;99.90;;;;;;5033495;28;20025;-82
2023/12/28 01:18:04;;;;;;;4.38;1.77;;;10.70;99.90;;;;;;5032707;28;20476;-82
2023/12/28 01:20:30;;;;;;;3.15;1.58;;;10.70;99.90;;;;;;5034416;28;20030;-81
2023/12/28 01:22:55;;;;;;;2.40;1.35;;;10.70;99.90;;;;;;5032747;28;20033;-82
2023/12/28 01:25:21;;;;;;;4.40;1.50;;;10.80;99.90;;;;;;5034270;28;20038;-81
2023/12/28 01:27:47;;;;;;;3.05;1.38;;;10.80;99.90;;;;;;5032955;28;20041;-80
2023/12/28 01:30:12;;;;;;;2.90;1.20;;;10.70;99.90;;;;;;5034161;28;20065;-81
2023/12/28 01:32:38;;;;;;;4.55;1.50;;;10.80;99.90;;;;;;5032870;28;20041;-80
2023/12/28 01:35:04;;;;;;;3.85;1.40;;;10.80;99.90;;;;;;5017312;28;20029;-83
2023/12/28 01:37:33;;;;;;;3.03;1.52;;;10.80;99.90;;;;;;5034088;28;20038;-84
2023/12/28 01:40:00;;;;;;;4.05;1.42;;;10.70;99.90;;;;;;5033698;28;20448;-85
2023/12/28 01:42:26;;;;;;;2.92;1.23;;;10.70;99.90;;;;;;5033631;28;20038;-80
2023/12/28 01:44:51;;;;;;;2.20;1.40;;;10.70;99.90;;;;;;5035274;28;20040;-77
2023/12/28 01:47:18;;;;;;;3.33;1.42;;;10.70;99.90;;;;;;5034657;28;20022;-77
2023/12/28 01:49:44;;;;;;;4.65;1.85;;;10.70;99.90;;;;;;5034655;28;20071;-79
2023/12/28 01:52:10;;;;;;;3.33;1.30;;;10.70;99.90;;;;;;5034506;28;20042;-80
2023/12/28 01:54:37;;;;;;;2.90;1.58;;;10.70;99.90;;;;;;5039615;28;20124;-79
2023/12/28 01:57:04;;;;;;;2.63;1.45;;;10.60;99.90;;;;;;5038364;28;20478;-79
2023/12/28 01:59:31;;;;;;;4.25;1.48;;;10.60;99.90;;;;;;5042486;28;20494;-79
2023/12/28 02:01:57;;;;;;;3.42;1.30;;;10.60;99.90;;;;;;5038841;28;20029;-79
2023/12/28 02:04:28;;;;;;;2.28;1.33;;;10.60;99.90;;;;;;5039400;28;20029;-78
2023/12/28 02:06:59;;;;;;;3.75;1.73;;;10.60;99.90;;;;;;5038486;28;20117;-77
2023/12/28 02:09:25;;;;;;;2.15;1.35;;;10.70;99.90;;;;;;5037154;28;20483;-77
2023/12/28 02:11:51;;;;;;;3.40;1.40;;;10.60;99.90;;;;;;5034219;28;20049;-79
2023/12/28 02:14:18;;;;;;;5.22;2.08;;;10.60;99.90;;;;;;5035797;28;20029;-79
2023/12/28 02:16:49;;;;;;;6.78;1.92;;;10.60;99.90;;;;;;5038137;28;20033;-78
2023/12/28 02:19:26;;;;;;;2.30;1.35;;;10.60;99.90;;;;;;5038536;28;20025;-77
2023/12/28 02:21:54;;;;;;;4.07;1.30;;;10.60;99.90;;;;;;5036291;28;20029;-78
2023/12/28 02:24:19;;;;;;;6.35;1.80;;;10.60;99.90;;;;;;5020009;28;20053;-78
2023/12/28 02:26:45;;;;;;;4.85;1.80;;;10.60;99.90;;;;;;5034745;28;20099;-78
2023/12/28 02:29:11;;;;;;;5.55;1.50;;;10.60;99.90;;;;;;5033927;28;20521;-79
2023/12/28 02:31:45;;;;;;;3.45;1.58;;;10.60;99.90;;;;;;5034146;28;20553;-79
2023/12/28 02:34:18;;;;;;;4.35;1.75;;;10.60;99.90;;;;;;5034132;28;20041;-79
2023/12/28 02:36:45;;;;;;;;;;;10.50;99.90;;;;;;5034671;28;20053;-80
2023/12/28 02:39:14;;;;;;;5.13;1.80;;;10.60;99.90;;;;;;5032412;28;19927;-80
2023/12/28 02:41:42;;;;;;;4.22;1.63;;;10.60;99.90;;;;;;5033730;28;20034;-79
2023/12/28 02:44:08;;;;;;;5.93;1.70;;;10.60;99.90;;;;;;5033286;28;20048;-80
2023/12/28 02:46:33;;;;;;;6.40;1.77;;;10.50;99.90;;;;;;5033315;28;20025;-80
2023/12/28 02:48:59;;;;;;;3.53;1.17;;;10.50;99.90;;;;;;5033595;28;20033;-80
2023/12/28 02:51:25;;;;;;;4.10;1.20;;;10.50;99.90;;;;;;5033422;28;20036;-79
2023/12/28 02:53:51;;;;;;;5.82;1.73;;;10.50;99.90;;;;;;5033245;28;20132;-79
2023/12/28 02:56:16;;;;;;;5.65;1.27;;;10.50;99.90;;;;;;5033734;28;20500;-79
2023/12/28 02:58:42;;;;;;;5.38;0.98;;;10.50;99.90;;;;;;5032081;28;20025;-80
2023/12/28 03:01:07;;;;;;;4.13;1.40;;;10.50;99.90;;;;;;5031863;28;20037;-80
2023/12/28 03:03:33;;;;;;;7.18;1.67;;;10.50;99.90;;;;;;5032762;28;20123;-79
2023/12/28 03:05:59;;;;;;;7.63;1.63;;;10.50;99.90;;;;;;5032088;28;20040;-79
2023/12/28 03:08:24;;;;;;;9.32;1.50;;;10.60;99.90;;;;;;5031520;28;20037;-79
2023/12/28 03:10:50;;;;;;;2.95;1.13;;;10.50;99.90;;;;;;5033379;28;20034;-79
2023/12/28 03:13:15;;;;;;;5.32;1.30;;;10.50;99.90;;;;;;5033599;28;20050;-80
2023/12/28 03:15:41;;;;;;;6.65;1.13;;;10.50;99.90;;;;;;5033068;28;20038;-81
2023/12/28 03:18:07;;;;;;;5.78;1.23;;;10.50;99.90;;;;;;5032774;28;20041;-80
2023/12/28 03:20:33;;;;;;;8.63;1.30;;;10.50;99.90;;;;;;5031793;28;20037;-80
2023/12/28 03:22:58;;;;;;;5.40;1.20;;;10.60;99.90;;;;;;5033327;28;20029;-78
2023/12/28 03:25:24;;;;;;;4.68;1.58;;;10.60;99.90;;;;;;5031384;28;20061;-80
2023/12/28 03:27:49;;;;;;;12.43;1.52;;;10.60;99.90;;;;;;5032729;28;20128;-79
2023/12/28 03:30:15;;;;;;;4.90;1.10;;;10.60;99.90;;;;;;5033404;28;20041;-79
2023/12/28 03:32:41;;;;;;;5.10;1.52;;;10.60;99.90;;;;;;5037694;28;20139;-80
2023/12/28 03:35:07;;;;;;;4.55;0.95;;;10.60;99.90;;;;;;5037027;28;20415;-79
2023/12/28 03:37:33;;;;;;;6.90;1.40;;;10.60;99.90;;;;;;5037042;28;20029;-79
2023/12/28 03:39:58;;;;;;;6.38;1.13;;;10.60;99.90;;;;;;5036338;28;20439;-78
2023/12/28 03:42:24;;;;;;;3.85;1.02;;;10.60;99.90;;;;;;5036339;28;20029;-79
2023/12/28 03:44:50;;;;;;;6.20;0.90;;;10.60;99.90;;;;;;5038008;28;20025;-79
2023/12/28 03:47:15;;;;;;;4.35;1.10;;;10.60;99.90;;;;;;5036926;28;20038;-79
2023/12/28 03:49:41;;;;;;;5.95;1.20;;;10.70;99.90;;;;;;5035624;28;20080;-79
2023/12/28 03:52:07;;;;;;;3.78;1.35;;;10.70;99.90;;;;;;5036677;28;20025;-79
2023/12/28 03:54:32;;;;;;;5.60;1.13;;;10.70;99.90;;;;;;5036707;28;20036;-80
2023/12/28 03:56:58;;;;;;;7.28;1.52;;;10.80;99.90;;;;;;5035401;28;20337;-79
2023/12/28 03:59:24;;;;;;;6.28;1.20;;;10.70;99.90;;;;;;5036807;28;20455;-79
2023/12/28 04:01:49;;;;;;;6.80;1.45;;;10.70;99.90;;;;;;5036274;28;20037;-79
2023/12/28 04:04:15;;;;;;;5.55;1.20;;;10.80;99.90;;;;;;5035243;28;20026;-78
2023/12/28 04:06:42;;;;;;;6.85;1.10;;;10.80;99.90;;;;;;5037289;28;20034;-79
2023/12/28 04:09:08;;;;;;;8.27;1.55;;;10.80;99.90;;;;;;5040124;28;20030;-78
2023/12/28 04:11:34;;;;;;;5.25;0.85;;;10.80;99.90;;;;;;5041709;28;20145;-78
2023/12/28 04:14:00;;;;;;;8.35;1.20;;;10.80;99.90;;;;;;5046312;28;20107;-78
2023/12/28 04:16:25;;;;;;;6.07;1.00;;;10.80;99.90;;;;;;5045118;28;20030;-78
2023/12/28 04:18:51;;;;;;;8.43;1.30;;;10.80;99.90;;;;;;5043397;28;20132;-79
2023/12/28 04:21:17;;;;;;;6.88;1.05;;;10.80;99.90;;;;;;5045451;28;20033;-78
2023/12/28 04:23:43;;;;;;;7.85;1.45;;;10.80;99.90;;;;;;5040506;28;20068;-78
2023/12/28 04:26:08;;;;;;;7.90;1.42;;;10.80;99.90;;;;;;5039705;28;20025;-78
2023/12/28 04:28:35;;;;;;;9.07;1.27;;;10.90;99.90;;;;;;5023850;28;20044;-77
2023/12/28 04:31:05;;;;;;;6.50;1.10;;;10.80;99.90;;;;;;5032077;28;20037;-77
2023/12/28 04:33:31;;;;;;;6.05;1.20;;;10.90;99.90;;;;;;5039208;28;20085;-80
2023/12/28 04:35:57;;;;;;;9.07;0.93;;;10.90;99.90;;;;;;5037525;28;20026;-80
2023/12/28 04:38:22;;;;;;;7.57;1.48;;;10.90;99.90;;;;;;5043282;28;20041;-79
2023/12/28 04:40:48;;;;;;;9.27;1.30;;;10.90;99.90;;;;;;5047637;28;20079;-78
2023/12/28 04:43:13;;;;;;;7.57;0.93;;;10.90;99.90;;;;;;5043813;28;20040;-78
2023/12/28 04:45:39;;;;;;;8.05;1.13;;;10.90;99.90;;;;;;5040956;28;20044;-78
2023/12/28 04:48:05;;;;;;;9.75;1.20;;;10.90;99.90;;;;;;5039703;28;20380;-78
2023/12/28 04:50:30;;;;;;;9.07;1.30;;;10.90;99.90;;;;;;5038436;28;20491;-79
2023/12/28 04:52:56;;;;;;;8.57;1.55;;;10.90;99.90;;;;;;5038159;28;20449;-79
2023/12/28 04:55:24;;;;;;;8.13;0.88;;;10.90;99.90;;;;;;5035994;28;20036;-79
2023/12/28 04:57:49;;;;;;;10.07;1.27;;;10.90;99.90;;;;;;5036259;28;20068;-79
2023/12/28 05:00:15;;;;;;;8.13;1.20;;;11.00;99.90;;;;;;5037114;28;20034;-79
2023/12/28 05:02:41;;;;;;;8.52;1.13;;;10.90;99.90;;;;;;5036595;28;20132;-79
2023/12/28 05:05:09;;;;;;;9.30;1.40;;;10.90;99.90;;;;;;5037317;28;20419;-80
2023/12/28 05:07:34;;;;;;;8.10;1.20;;;11.00;99.90;;;;;;5034680;28;20122;-79
2023/12/28 05:10:00;;;;;;;11.80;1.20;;;11.00;99.90;;;;;;5037499;28;20033;-78
2023/12/28 05:12:26;;;;;;;11.85;1.08;;;11.00;99.90;;;;;;5036180;28;20373;-79
2023/12/28 05:14:51;;;;;;;12.82;1.70;;;11.00;99.90;;;;;;5037397;28;20470;-79
2023/12/28 05:17:17;;;;;;;11.57;1.45;;;11.00;99.90;;;;;;5035957;28;20037;-80
2023/12/28 05:19:43;;;;;;;9.20;1.10;;;11.00;99.90;;;;;;5017947;28;20025;-80
2023/12/28 05:22:10;;;;;;;11.93;1.30;;;11.00;99.90;;;;;;5036965;28;20040;-79
2023/12/28 05:24:36;;;;;;;7.15;1.00;;;11.00;99.90;;;;;;5036854;28;20037;-79
2023/12/28 05:27:02;;;;;;;7.60;1.05;;;11.00;99.90;;;;;;5037110;28;20040;-79
2023/12/28 05:29:28;;;;;;;8.95;1.15;;;11.10;99.90;;;;;;5035582;28;20031;-80
2023/12/28 05:31:53;;;;;;;9.20;1.50;;;11.10;99.90;;;;;;5017287;28;20041;-80
2023/12/28 05:34:19;;;;;;;7.95;1.55;;;11.00;99.90;;;;;;5035468;28;20029;-80
2023/12/28 05:36:47;;;;;;;11.32;1.25;;;11.10;99.90;;;;;;5016930;28;20032;-79
2023/12/28 05:39:13;;;;;;;15.45;2.47;;;11.10;99.90;;;;;;5033530;28;20171;-79
2023/12/28 05:41:40;;;;;;;11.07;1.33;;;11.10;99.90;;;;;;5035386;28;20080;-79
2023/12/28 05:44:06;;;;;;;8.00;1.15;;;11.10;99.90;;;;;;5035251;28;20033;-79
2023/12/28 05:46:31;;;;;;;12.43;1.40;;;11.10;99.90;;;;;;5034296;28;20109;-79
2023/12/28 05:48:58;;;;;;;12.38;1.38;;;11.10;99.90;;;;;;5034577;28;20032;-79
2023/12/28 05:51:23;;;;;;;12.15;1.45;;;11.10;99.90;;;;;;5034210;28;20088;-79
2023/12/28 05:53:49;;;;;;;13.50;1.40;;;11.10;99.90;;;;;;5034476;28;20033;-79
2023/12/28 05:56:15;;;;;;;13.88;1.40;;;11.20;99.90;;;;;;5034191;28;20541;-79
2023/12/28 05:58:41;;;;;;;9.50;1.33;;;11.20;99.90;;;;;;5034432;28;20029;-79
2023/12/28 06:01:07;;;;;;;9.98;1.30;;;11.10;99.90;;;;;;5034696;28;20137;-79
2023/12/28 06:03:32;;;;;;;14.07;1.52;;;11.20;99.90;;;;;;5033826;28;20411;-80
2023/12/28 06:05:58;;;;;;;10.25;1.42;;;11.20;99.90;;;;;;5034707;28;20037;-79
2023/12/28 06:08:24;;;;;;;8.55;1.35;;;11.20;99.90;;;;;;5034500;28;20036;-81
2023/12/28 06:10:49;;;;;;;10.15;1.52;;;11.20;99.90;;;;;;5033912;28;20033;-80
2023/12/28 06:13:15;;;;;;;12.23;1.60;;;11.20;99.90;;;;;;5034736;28;20050;-80
2023/12/28 06:15:41;;;;;;;12.93;1.65;;;11.20;99.90;;;;;;5033340;28;20030;-80
2023/12/28 06:18:06;;;;;;;13.55;1.90;;;11.30;99.90;;;;;;5033828;28;20033;-80
2023/12/28 06:20:32;;;;;;;15.05;2.05;;;11.30;99.90;;;;;;5033808;28;20037;-80
2023/12/28 06:22:58;;;;;;;9.68;1.33;;;11.20;99.90;;;;;;5032508;28;20048;-80
2023/12/28 06:25:23;;;;;;;10.18;1.10;;;11.20;99.90;;;;;;5034004;28;20415;-80
2023/12/28 06:27:49;;;;;;;8.75;1.65;;;11.30;99.90;;;;;;5033645;28;20064;-80
2023/12/28 06:30:15;;;;;;;16.80;1.83;;;11.30;99.90;;;;;;5034091;28;20084;-79
2023/12/28 06:32:40;;;;;;;9.02;1.10;;;11.30;99.90;;;;;;5033951;28;20038;-79
2023/12/28 06:35:06;;;;;;;9.93;1.55;;;11.30;99.90;;;;;;5033881;28;20041;-79
2023/12/28 06:37:32;;;;;;;10.25;1.23;;;11.30;99.90;;;;;;5034076;28;20103;-78
2023/12/28 06:39:58;;;;;;;10.25;1.67;;;11.30;99.90;;;;;;5032106;28;20480;-80
2023/12/28 06:42:23;;;;;;;11.90;1.40;;;11.30;99.90;;;;;;5015670;28;20468;-80
2023/12/28 06:44:49;;;;;;;10.95;1.30;;;11.20;99.90;;;;;;5033669;28;20034;-79
2023/12/28 06:47:15;;;;;;;15.93;1.50;;;11.30;99.90;;;;;;5032601;28;20385;-80
2023/12/28 06:49:40;;;;;;;11.52;1.42;;;11.30;99.90;;;;;;5032666;28;20033;-80
2023/12/28 06:52:06;;;;;;;17.30;2.00;;;11.20;99.90;;;;;;5032148;28;20441;-79
2023/12/28 06:54:32;;;;;;;11.68;1.75;;;11.30;99.90;;;;;;5033173;28;20515;-80
2023/12/28 06:56:57;;;;;;;18.10;2.00;;;11.30;99.90;;;;;;5032305;28;20099;-79
2023/12/28 06:59:23;;;;;;;10.88;1.40;;;11.30;99.90;;;;;;5032945;28;20467;-79
2023/12/28 07:01:49;;;;;;;15.88;1.30;;;11.20;99.90;;;;;;5032506;28;20033;-79
2023/12/28 07:04:15;;;;;;;15.32;1.77;;;11.30;99.90;;;;;;5033594;28;20036;-77
2023/12/28 07:06:41;;;;;;;10.38;1.40;;;11.30;99.90;;;;;;5015483;28;20035;-78
2023/12/28 07:09:07;;;;;;;15.48;2.10;;;11.30;99.90;;;;;;5032324;28;20029;-80
2023/12/28 07:11:32;;;;;;;13.38;2.08;;;11.30;99.90;;;;;;5032754;28;20034;-79
2023/12/28 07:13:58;;;;;;;15.93;1.80;;;11.30;99.90;;;;;;5033786;28;20463;-79
2023/12/28 07:16:24;;;;;;;16.10;1.75;;;11.30;99.90;;;;;;5033021;28;20036;-79
2023/12/28 07:18:49;;;;;;;16.85;2.05;;;11.30;99.90;;;;;;5031599;28;20044;-79
2023/12/28 07:21:15;;;;;;;11.68;1.90;;;11.30;99.90;;;;;;5032955;28;20038;-78
2023/12/28 07:23:41;;;;;;;16.90;2.42;;;11.30;99.90;;;;;;5032429;28;20033;-79
2023/12/28 07:26:06;;;;;;;17.88;2.22;;;11.30;99.90;;;;;;5033406;28;20029;-79
2023/12/28 07:28:32;;;;;;;12.13;1.45;;;11.30;99.90;;;;;;5032962;28;20029;-79
2023/12/28 07:30:57;;;;;;;15.43;2.08;;;11.40;99.90;;;;;;5033143;28;20040;-79
2023/12/28 07:33:23;;;;;;;16.58;1.80;;;11.30;99.90;;;;;;5031512;28;20491;-79
2023/12/28 07:35:49;;;;;;;11.70;1.63;;;11.30;99.90;;;;;;5031463;28;20463;-79
2023/12/28 07:38:15;;;;;;;11.80;1.65;;;11.30;99.90;;;;;;5031792;28;20038;-78
2023/12/28 07:40:41;;;;;;;13.95;1.90;;;11.30;99.90;;;;;;5032030;28;20525;-73
2023/12/28 07:43:06;;;;;;;16.52;2.00;;;11.40;99.90;;;;;;5031294;28;20088;-73
2023/12/28 07:45:32;;;;;;;15.82;2.17;;;11.30;99.90;;;;;;5032318;28;20433;-74
2023/12/28 07:48:01;;;;;;;16.27;2.13;;;11.30;99.90;;;;;;5031544;28;20092;-74
2023/12/28 07:50:27;;;;;;;15.57;2.22;;;11.30;99.90;;;;;;5032648;28;20048;-73
2023/12/28 07:52:52;;;;;;;14.15;1.75;;;11.30;99.90;;;;;;5031114;28;20030;-73
2023/12/28 07:55:19;;;;;;;13.27;2.05;;;11.30;99.90;;;;;;5032556;28;20065;-73
2023/12/28 07:57:45;;;;;;;11.85;1.77;;;11.30;99.90;;;;;;5032514;28;20455;-72
2023/12/28 08:00:11;;;;;;;15.23;2.20;;;11.30;99.90;;;;;;5032950;28;20062;-72
2023/12/28 08:02:37;;;;;;;15.65;1.85;;;11.30;99.90;;;;;;5032446;28;20033;-72
2023/12/28 08:05:03;;;;;;;15.75;2.22;;;11.30;99.90;;;;;;5015331;28;20355;-73
2023/12/28 08:07:29;;;;;;;16.58;1.92;;;11.30;99.90;;;;;;5030881;28;20030;-73
2023/12/28 08:09:55;;;;;;;12.05;1.83;;;11.30;99.90;;;;;;5031659;28;20360;-73
2023/12/28 08:12:24;;;;;;;17.52;2.30;;;11.30;99.90;;;;;;5030891;28;20076;-73
2023/12/28 08:14:50;;;;;;;12.95;1.73;;;11.30;99.90;;;;;;5030954;28;20061;-72
2023/12/28 08:17:16;;;;;;;14.95;1.50;;;11.30;99.90;;;;;;5033268;28;20029;-75
2023/12/28 08:19:41;;;;;;;12.10;1.45;;;11.30;99.90;;;;;;5036123;28;20113;-73
2023/12/28 08:22:07;;;;;;;19.25;2.00;;;11.30;99.90;;;;;;5036472;28;20030;-73
2023/12/28 08:24:33;;;;;;;21.20;2.30;;;11.40;99.90;;;;;;5035695;28;20116;-73
2023/12/28 08:26:59;;;;;;;16.77;1.85;;;11.40;99.90;;;;;;5036131;28;20030;-73
2023/12/28 08:29:26;;;;;;;15.02;1.63;;;11.40;99.90;;;;;;5035609;28;20022;-74
2023/12/28 08:31:52;;;;;;;16.77;2.00;;;11.30;99.90;;;;;;5034766;28;20033;-73
2023/12/28 08:34:17;;;;;;;17.60;2.00;;;11.40;99.90;;;;;;5036847;28;20033;-77
2023/12/28 08:36:43;;;;;;;21.50;2.47;;;11.30;99.90;;;;;;5035745;28;20029;-74
2023/12/28 08:39:09;;;;;;;23.52;3.13;;;11.40;99.90;;;;;;5035654;28;20128;-75
2023/12/28 08:41:34;;;;;;;18.05;2.38;;;11.40;99.90;;;;;;5017668;28;20083;-75
2023/12/28 08:44:00;;;;;;;17.15;1.67;;;11.40;99.90;;;;;;5035384;28;20038;-74
2023/12/28 08:46:26;;;;;;;14.13;2.47;;;11.40;99.90;;;;;;5035650;28;20117;-74
2023/12/28 08:48:52;;;;;;;15.60;1.80;;;11.40;99.90;;;;;;5034871;28;20036;-74
2023/12/28 08:51:18;;;;;;;19.33;2.95;;;11.40;99.90;;;;;;5035067;28;20372;-74
2023/12/28 08:53:43;;;;;;;18.50;2.88;;;11.40;99.90;;;;;;5035167;28;20040;-75
2023/12/28 08:56:22;;;;;;;15.38;2.05;;;11.40;99.90;;;;;;5034461;28;20121;-77
2023/12/28 08:58:48;;;;;;;14.82;2.00;;;11.40;99.90;;;;;;5036329;28;20034;-75
2023/12/28 09:01:17;;;;;;;22.02;2.38;;;11.50;99.90;;;;;;5036779;28;20030;-76
2023/12/28 09:03:43;;;;;;;17.02;2.20;;;11.40;99.90;;;;;;5018746;28;20091;-74
2023/12/28 09:06:09;;;;;;;18.05;2.13;;;11.40;99.90;;;;;;5034675;28;20032;-73
2023/12/28 09:08:35;;;;;;;14.02;2.58;;;11.40;99.90;;;;;;5034242;28;20379;-73
2023/12/28 09:11:01;;;;;;;21.70;2.05;;;11.40;99.90;;;;;;5034962;28;20137;-72
2023/12/28 09:13:26;;;;;;;17.90;2.03;;;11.40;99.90;;;;;;5034072;28;20058;-73
2023/12/28 09:15:52;;;;;;;17.63;2.90;;;11.40;99.90;;;;;;5034383;28;20029;-72
2023/12/28 09:18:18;;;;;;;13.05;2.20;;;11.40;99.90;;;;;;5033659;28;20033;-73
2023/12/28 09:20:44;;;;;;;17.63;2.42;;;11.40;99.90;;;;;;5034036;28;20432;-72
2023/12/28 09:23:10;;;;;;;17.35;2.35;;;11.40;99.90;;;;;;5033680;28;20046;-72
2023/12/28 09:25:38;;;;;;;16.83;1.98;;;11.40;99.90;;;;;;5035198;28;20104;-73
2023/12/28 09:28:04;;;;;;;19.55;2.35;;;11.40;99.90;;;;;;5034176;28;20044;-73
2023/12/28 09:30:30;;;;;;;14.40;2.05;;;11.40;99.90;;;;;;5034637;28;20029;-73
2023/12/28 09:32:56;;;;;;;16.55;2.50;;;11.40;99.90;;;;;;5034526;28;20076;-73
2023/12/28 09:35:21;;;;;;;19.90;2.17;;;11.40;99.90;;;;;;5033197;28;20475;-74
2023/12/28 09:37:47;;;;;;;18.85;2.00;;;11.40;99.90;;;;;;5034303;28;20029;-73
2023/12/28 09:40:13;;;;;;;14.57;1.55;;;11.50;99.90;;;;;;5033548;28;20060;-73
2023/12/28 09:43:20;;;;;;;15.30;2.10;;;11.50;99.90;;;;;;5033099;28;20056;-72
2023/12/28 09:45:49;;;;;;;18.50;2.08;;;11.50;99.90;;;;;;5034392;28;20025;-72
2023/12/28 09:48:19;;;;;;;18.23;2.42;;;11.50;99.90;;;;;;5034930;28;20369;-72
2023/12/28 09:50:55;;;;;;;14.95;1.80;;;11.50;99.90;;;;;;5033171;28;20129;-72
2023/12/28 09:53:24;;;;;;;13.48;1.48;;;11.50;99.90;;;;;;5035216;28;20088;-73
2023/12/28 09:55:53;;;;;;;14.20;2.33;;;11.60;99.90;;;;;;5034266;28;20025;-76
2023/12/28 09:58:20;;;;;;;17.15;2.63;;;11.60;99.90;;;;;;5038548;28;20065;-75
2023/12/28 10:00:48;;;;;;;15.13;2.00;;;11.60;99.90;;;;;;5034497;28;20025;-74
2023/12/28 10:03:14;;;;;;;17.42;1.95;;;11.60;99.90;;;;;;5033400;28;20057;-73
2023/12/28 10:05:43;;;;;;;17.27;2.05;;;11.70;99.90;;;;;;5036265;28;20022;-74
2023/12/28 10:08:12;;;;;;;14.40;1.77;;;11.70;99.90;;;;;;5036486;28;20029;-76
2023/12/28 10:10:38;;;;;;;18.40;1.95;;;11.70;99.90;;;;;;5035074;28;20030;-72
2023/12/28 10:13:04;;;;;;;19.02;2.17;;;11.70;99.90;;;;;;5033857;28;20049;-72
2023/12/28 10:15:31;;;;;;;18.17;2.45;;;11.70;99.90;;;;;;5034406;28;20026;-74
2023/12/28 10:17:56;;;;;;;16.02;2.03;;;11.70;99.90;;;;;;5035209;28;20112;-74
2023/12/28 10:20:25;;;;;;;22.80;2.22;;;11.70;99.90;;;;;;5033025;28;20479;-73
2023/12/28 10:22:51;;;;;;;20.45;2.97;;;11.70;99.90;;;;;;5035813;28;20034;-75
2023/12/28 10:25:17;;;;;;;15.98;2.63;;;11.60;99.90;;;;;;5033601;28;20376;-74
2023/12/28 10:27:42;;;;;;;14.80;2.60;;;11.60;99.90;;;;;;5033272;28;20084;-74
2023/12/28 10:30:12;;;;;;;16.38;1.92;;;11.70;99.90;;;;;;5034523;28;20037;-74
2023/12/28 10:32:41;;;;;;;16.80;2.50;;;11.70;99.90;;;;;;5036730;28;20029;-75
2023/12/28 10:35:08;;;;;;;15.70;1.92;;;11.70;99.90;;;;;;5035046;28;20030;-74
2023/12/28 10:37:37;;;;;;;22.55;1.90;;;11.70;99.90;;;;;;5034282;28;20092;-74
2023/12/28 10:40:06;;;;;;;16.13;1.52;;;11.80;99.90;;;;;;5033916;28;20080;-74
2023/12/28 10:42:37;;;;;;;20.40;1.88;;;11.80;99.90;;;;;;5033561;28;20034;-74
2023/12/28 10:45:05;;;;;;;20.85;2.67;;;11.80;99.90;;;;;;5033344;28;20029;-74
2023/12/28 10:47:38;;;;;;;16.85;2.35;;;11.90;99.90;;;;;;5036312;28;20140;-77
2023/12/28 10:50:05;;;;;;;24.45;3.05;;;11.90;99.90;;;;;;5040007;28;20029;-75
2023/12/28 10:52:35;;;;;;;16.88;2.05;;;11.90;99.90;;;;;;5033367;28;20033;-74
2023/12/28 10:55:08;;;;;;;14.38;2.10;;;11.90;99.90;;;;;;5035689;28;20030;-78
2023/12/28 10:57:44;;;;;;;16.17;2.55;;;11.90;99.90;;;;;;5038788;28;20025;-77
2023/12/28 11:00:12;;;;;;;21.02;3.38;;;11.90;99.90;;;;;;5034188;28;20083;-75
2023/12/28 11:02:44;;;;;;;17.00;2.35;;;11.90;99.90;;;;;;5046578;28;20032;-76
2023/12/28 11:05:12;;;;;;;17.77;2.40;;;11.90;99.90;;;;;;5036967;28;20063;-77
2023/12/28 11:07:39;;;;;;;14.05;2.10;;;11.90;99.90;;;;;;5033151;28;20036;-78
2023/12/28 11:10:06;;;;;;;15.88;2.10;;;11.90;99.90;;;;;;5033506;28;20116;-81
2023/12/28 11:12:33;;;;;;;16.45;2.08;;;11.90;99.90;;;;;;5033981;28;20057;-73
2023/12/28 11:14:59;;;;;;;13.70;2.08;;;11.90;99.90;;;;;;5032133;28;20079;-74
2023/12/28 11:17:25;;;;;;;20.63;2.30;;;11.90;99.90;;;;;;5033670;28;20030;-73
2023/12/28 11:19:53;;;;;;;23.45;2.55;;;11.90;99.90;;;;;;5033467;28;20034;-74
2023/12/28 11:22:23;;;;;;;18.70;2.28;;;11.90;99.90;;;;;;5033073;28;20103;-73
2023/12/28 11:24:53;;;;;;;12.82;2.33;;;12.00;99.90;;;;;;5034060;28;20022;-76
2023/12/28 11:27:19;;;;;;;15.32;2.63;;;12.00;99.90;;;;;;5033649;28;20026;-76
2023/12/28 11:29:47;;;;;;;22.25;3.17;;;12.00;99.90;;;;;;5033541;28;20030;-73
2023/12/28 11:32:13;;;;;;;17.15;2.38;;;12.00;99.90;;;;;;5032099;28;20038;-72
2023/12/28 11:34:39;;;;;;;15.30;1.95;;;12.00;99.90;;;;;;5033256;28;20044;-74
2023/12/28 11:37:18;;;;;;;16.73;2.03;;;12.00;99.90;;;;;;5034677;28;20061;-76
2023/12/28 11:39:44;;;;;;;22.27;2.13;;;12.00;99.90;;;;;;5037039;28;20355;-78
2023/12/28 11:42:11;;;;;;;20.00;2.15;;;11.90;99.90;;;;;;5036925;28;20056;-78
2023/12/28 11:44:44;;;;;;;15.70;2.15;;;11.90;99.90;;;;;;5038500;28;20140;-78
2023/12/28 11:47:23;;;;;;;21.38;2.15;;;12.00;99.90;;;;;;5039416;28;20063;-78
2023/12/28 11:49:54;;;;;;;13.90;2.15;;;12.00;99.90;;;;;;5042175;28;20028;-79
2023/12/28 11:52:27;;;;;;;15.77;2.38;;;12.10;99.90;;;;;;5043303;28;20034;-78
2023/12/28 11:54:54;;;;;;;15.48;2.08;;;12.00;99.90;;;;;;5047065;28;20048;-79
2023/12/28 11:57:20;;;;;;;16.60;2.17;;;12.00;99.90;;;;;;5045519;28;20053;-78
2023/12/28 11:59:46;;;;;;;20.50;2.97;;;12.00;99.90;;;;;;5046352;28;20128;-78
2023/12/28 12:02:13;;;;;;;20.15;2.55;;;11.90;99.90;;;;;;5044295;28;20113;-77
2023/12/28 12:04:39;;;;;;;19.75;2.45;;;11.90;99.90;;;;;;5041545;28;20058;-79
2023/12/28 12:07:05;;;;;;;17.80;2.47;;;11.90;99.90;;;;;;5045103;28;20033;-78
2023/12/28 12:09:34;;;;;;;16.75;2.42;;;11.80;99.90;;;;;;5044368;28;20064;-78
2023/12/28 12:12:03;;;;;;;15.68;2.75;;;11.90;99.90;;;;;;5044815;28;20058;-78
2023/12/28 12:14:30;;;;;;;13.82;2.05;;;11.90;99.90;;;;;;5042709;28;20022;-78
2023/12/28 12:16:59;;;;;;;20.73;2.42;;;11.90;99.90;;;;;;5040165;28;20103;-78
2023/12/28 12:19:26;;;;;;;21.13;3.30;;;11.90;99.90;;;;;;5042205;28;20048;-78
2023/12/28 12:21:52;;;;;;;19.67;2.65;;;11.80;99.90;;;;;;5041154;28;20060;-78
2023/12/28 12:24:19;;;;;;;18.00;2.10;;;11.80;99.90;;;;;;5047705;28;20045;-77
2023/12/28 12:26:52;;;;;;;19.15;2.55;;;11.80;99.90;;;;;;5040926;28;20535;-79
2023/12/28 12:29:18;;;;;;;19.08;2.83;;;11.80;99.90;;;;;;5042245;28;20037;-77
2023/12/28 12:31:46;;;;;;;22.02;2.15;;;11.80;99.90;;;;;;5041415;28;20037;-78
2023/12/28 12:34:16;;;;;;;13.35;1.98;;;11.80;99.90;;;;;;5044214;28;20610;-77
2023/12/28 12:36:42;;;;;;;15.90;2.85;;;11.90;99.90;;;;;;5041382;28;20024;-78